Terminal Aerodrome Forecast
Issued by NWS

Home | Current Version | Previous Version | Text Only | Print | Product List | Glossary On
Versions: 1 2 3 4 5 6 7 8 9 10 11 12 13 14 15 16 17 18 19 20
000
FTUS43 KDLH 152300 RRA
TAFHIB
TAF
KHIB 152342Z 1600/1624 29006KT P6SM SKC
     FM161000 10012KT P6SM BKN080 OVC150
     FM161500 09015G22KT 6SM -SN BKN035 OVC060
     FM162000 06015G24KT 3SM -SN OVC015=

USA.gov is the U.S. government's official web portal to all federal, state and local government web resources and services.